sensor_id;sensor_type;location;lat;lon;timestamp;temperature;humidity
51853;DHT22;37894;53.172;6.598;2023-11-18T00:00:50;2.10;99.90
51853;DHT22;37894;53.172;6.598;2023-11-18T00:08:08;2.40;99.90
51853;DHT22;37894;53.172;6.598;2023-11-18T00:15:27;2.40;99.90
51853;DHT22;37894;53.172;6.598;2023-11-18T00:20:19;2.50;99.90
51853;DHT22;37894;53.172;6.598;2023-11-18T00:22:45;2.40;99.90
51853;DHT22;37894;53.172;6.598;2023-11-18T00:27:40;2.40;99.90
51853;DHT22;37894;53.172;6.598;2023-11-18T00:30:06;2.30;99.90
51853;DHT22;37894;53.172;6.598;2023-11-18T00:35:02;2.00;99.90
51853;DHT22;37894;53.172;6.598;2023-11-18T00:39:57;2.10;99.90
51853;DHT22;37894;53.172;6.598;2023-11-18T00:44:49;2.40;99.90
51853;DHT22;37894;53.172;6.598;2023-11-18T00:54:34;2.40;99.90
51853;DHT22;37894;53.172;6.598;2023-11-18T00:57:00;1.80;99.90
51853;DHT22;37894;53.172;6.598;2023-11-18T01:04:18;2.50;99.90
51853;DHT22;37894;53.172;6.598;2023-11-18T01:09:12;1.90;99.90
51853;DHT22;37894;53.172;6.598;2023-11-18T01:11:38;2.80;99.90
51853;DHT22;37894;53.172;6.598;2023-11-18T01:14:04;2.30;99.90
51853;DHT22;37894;53.172;6.598;2023-11-18T01:23:48;2.30;99.90
51853;DHT22;37894;53.172;6.598;2023-11-18T01:28:41;2.20;99.90
51853;DHT22;37894;53.172;6.598;2023-11-18T01:31:09;2.00;99.90
51853;DHT22;37894;53.172;6.598;2023-11-18T01:33:36;2.60;99.90
51853;DHT22;37894;53.172;6.598;2023-11-18T01:36:09;2.50;99.90
51853;DHT22;37894;53.172;6.598;2023-11-18T01:38:36;2.50;99.90
51853;DHT22;37894;53.172;6.598;2023-11-18T01:41:05;2.30;99.90
51853;DHT22;37894;53.172;6.598;2023-11-18T01:43:32;2.50;99.90
51853;DHT22;37894;53.172;6.598;2023-11-18T01:46:09;2.50;99.90
51853;DHT22;37894;53.172;6.598;2023-11-18T01:48:36;2.50;99.90
51853;DHT22;37894;53.172;6.598;2023-11-18T01:51:05;2.50;99.90
51853;DHT22;37894;53.172;6.598;2023-11-18T01:53:32;2.50;99.90
51853;DHT22;37894;53.172;6.598;2023-11-18T01:56:01;2.70;99.90
51853;DHT22;37894;53.172;6.598;2023-11-18T02:00:57;2.40;99.90
51853;DHT22;37894;53.172;6.598;2023-11-18T02:03:23;2.30;99.90
51853;DHT22;37894;53.172;6.598;2023-11-18T02:05:49;2.60;99.90
51853;DHT22;37894;53.172;6.598;2023-11-18T02:10:51;1.70;99.90
51853;DHT22;37894;53.172;6.598;2023-11-18T02:13:32;2.90;99.90
51853;DHT22;37894;53.172;6.598;2023-11-18T02:15:59;2.00;99.90
51853;DHT22;37894;53.172;6.598;2023-11-18T02:18:29;2.50;99.90
51853;DHT22;37894;53.172;6.598;2023-11-18T02:23:25;2.60;99.90
51853;DHT22;37894;53.172;6.598;2023-11-18T02:25:55;2.60;99.90
51853;DHT22;37894;53.172;6.598;2023-11-18T02:31:00;2.60;99.90
51853;DHT22;37894;53.172;6.598;2023-11-18T02:33:35;2.70;99.90
51853;DHT22;37894;53.172;6.598;2023-11-18T02:36:10;2.90;99.90
51853;DHT22;37894;53.172;6.598;2023-11-18T02:38:44;2.70;99.90
51853;DHT22;37894;53.172;6.598;2023-11-18T02:41:12;2.70;99.90
51853;DHT22;37894;53.172;6.598;2023-11-18T02:43:39;2.80;99.90
51853;DHT22;37894;53.172;6.598;2023-11-18T02:46:07;2.70;99.90
51853;DHT22;37894;53.172;6.598;2023-11-18T02:48:34;2.80;99.90
51853;DHT22;37894;53.172;6.598;2023-11-18T02:51:01;3.40;99.90
51853;DHT22;37894;53.172;6.598;2023-11-18T03:10:40;2.70;99.90
51853;DHT22;37894;53.172;6.598;2023-11-18T03:27:49;2.70;99.90
51853;DHT22;37894;53.172;6.598;2023-11-18T03:30:15;2.50;99.90
51853;DHT22;37894;53.172;6.598;2023-11-18T03:32:42;3.60;99.90
51853;DHT22;37894;53.172;6.598;2023-11-18T03:35:08;2.50;99.90
51853;DHT22;37894;53.172;6.598;2023-11-18T03:37:38;2.50;99.90
51853;DHT22;37894;53.172;6.598;2023-11-18T03:40:08;2.50;99.90
51853;DHT22;37894;53.172;6.598;2023-11-18T03:45:02;2.40;99.90
51853;DHT22;37894;53.172;6.598;2023-11-18T04:02:09;2.60;99.90
51853;DHT22;37894;53.172;6.598;2023-11-18T04:04:37;2.60;99.90
51853;DHT22;37894;53.172;6.598;2023-11-18T04:07:03;2.70;99.90
51853;DHT22;37894;53.172;6.598;2023-11-18T04:09:30;2.80;99.90
51853;DHT22;37894;53.172;6.598;2023-11-18T04:11:55;2.60;99.90
51853;DHT22;37894;53.172;6.598;2023-11-18T04:16:48;2.60;99.90
51853;DHT22;37894;53.172;6.598;2023-11-18T04:26:33;2.10;99.90
51853;DHT22;37894;53.172;6.598;2023-11-18T04:31:25;2.80;99.90
51853;DHT22;37894;53.172;6.598;2023-11-18T04:36:17;1.60;99.90
51853;DHT22;37894;53.172;6.598;2023-11-18T04:46:05;2.70;99.90
51853;DHT22;37894;53.172;6.598;2023-11-18T05:00:44;3.00;99.90
51853;DHT22;37894;53.172;6.598;2023-11-18T05:03:10;3.00;99.90
51853;DHT22;37894;53.172;6.598;2023-11-18T05:08:06;2.90;99.90
51853;DHT22;37894;53.172;6.598;2023-11-18T05:25:12;3.00;99.90
51853;DHT22;37894;53.172;6.598;2023-11-18T05:30:08;4.10;99.90
51853;DHT22;37894;53.172;6.598;2023-11-18T05:32:35;2.50;99.90
51853;DHT22;37894;53.172;6.598;2023-11-18T05:37:30;2.20;99.90
51853;DHT22;37894;53.172;6.598;2023-11-18T05:40:01;3.10;99.90
51853;DHT22;37894;53.172;6.598;2023-11-18T05:42:33;3.20;99.90
51853;DHT22;37894;53.172;6.598;2023-11-18T05:49:54;3.10;99.90
51853;DHT22;37894;53.172;6.598;2023-11-18T05:52:21;3.10;99.90
51853;DHT22;37894;53.172;6.598;2023-11-18T05:57:17;3.10;99.90
51853;DHT22;37894;53.172;6.598;2023-11-18T06:04:44;3.10;99.90
51853;DHT22;37894;53.172;6.598;2023-11-18T06:09:40;3.30;99.90
51853;DHT22;37894;53.172;6.598;2023-11-18T06:12:08;2.70;99.90
51853;DHT22;37894;53.172;6.598;2023-11-18T06:14:40;3.20;99.90
51853;DHT22;37894;53.172;6.598;2023-11-18T06:26:53;3.50;99.90
51853;DHT22;37894;53.172;6.598;2023-11-18T06:29:19;2.90;99.90
51853;DHT22;37894;53.172;6.598;2023-11-18T06:34:11;2.80;99.90
51853;DHT22;37894;53.172;6.598;2023-11-18T06:39:04;3.70;99.90
51853;DHT22;37894;53.172;6.598;2023-11-18T06:46:42;4.40;99.90
51853;DHT22;37894;53.172;6.598;2023-11-18T06:49:08;3.70;99.90
51853;DHT22;37894;53.172;6.598;2023-11-18T06:54:04;3.60;99.90
51853;DHT22;37894;53.172;6.598;2023-11-18T06:56:42;3.50;99.90
51853;DHT22;37894;53.172;6.598;2023-11-18T07:04:06;3.60;99.90
51853;DHT22;37894;53.172;6.598;2023-11-18T07:09:06;3.60;99.90
51853;DHT22;37894;53.172;6.598;2023-11-18T07:11:42;3.50;99.90
51853;DHT22;37894;53.172;6.598;2023-11-18T07:14:11;3.60;99.90
51853;DHT22;37894;53.172;6.598;2023-11-18T07:16:38;3.70;99.90
51853;DHT22;37894;53.172;6.598;2023-11-18T07:19:05;4.90;99.90
51853;DHT22;37894;53.172;6.598;2023-11-18T07:28:50;3.80;99.90
51853;DHT22;37894;53.172;6.598;2023-11-18T07:31:17;3.80;99.90
51853;DHT22;37894;53.172;6.598;2023-11-18T07:33:47;4.30;99.90
51853;DHT22;37894;53.172;6.598;2023-11-18T07:36:19;3.80;99.90
51853;DHT22;37894;53.172;6.598;2023-11-18T07:43:53;4.30;99.90
51853;DHT22;37894;53.172;6.598;2023-11-18T07:46:21;3.90;99.90
51853;DHT22;37894;53.172;6.598;2023-11-18T07:48:51;4.00;99.90
51853;DHT22;37894;53.172;6.598;2023-11-18T07:51:18;4.10;99.90
51853;DHT22;37894;53.172;6.598;2023-11-18T07:56:13;4.70;99.90
51853;DHT22;37894;53.172;6.598;2023-11-18T07:58:44;4.00;99.90
51853;DHT22;37894;53.172;6.598;2023-11-18T08:01:14;5.30;99.90
51853;DHT22;37894;53.172;6.598;2023-11-18T08:03:42;4.10;99.90
51853;DHT22;37894;53.172;6.598;2023-11-18T08:08:34;3.30;99.90
51853;DHT22;37894;53.172;6.598;2023-11-18T08:11:02;4.80;99.90
51853;DHT22;37894;53.172;6.598;2023-11-18T08:13:28;4.20;99.90
51853;DHT22;37894;53.172;6.598;2023-11-18T08:20:47;4.40;99.90
51853;DHT22;37894;53.172;6.598;2023-11-18T08:26:14;4.20;99.90
51853;DHT22;37894;53.172;6.598;2023-11-18T08:29:32;4.30;99.90
51853;DHT22;37894;53.172;6.598;2023-11-18T08:32:12;4.20;99.90
51853;DHT22;37894;53.172;6.598;2023-11-18T08:37:06;3.70;99.90
51853;DHT22;37894;53.172;6.598;2023-11-18T08:41:58;3.70;99.90
51853;DHT22;37894;53.172;6.598;2023-11-18T08:46:52;4.20;99.90
51853;DHT22;37894;53.172;6.598;2023-11-18T08:49:18;4.50;99.90
51853;DHT22;37894;53.172;6.598;2023-11-18T08:51:50;4.50;99.90
51853;DHT22;37894;53.172;6.598;2023-11-18T08:54:22;4.20;99.90
51853;DHT22;37894;53.172;6.598;2023-11-18T08:56:48;4.50;99.90
51853;DHT22;37894;53.172;6.598;2023-11-18T08:59:18;4.50;99.90
51853;DHT22;37894;53.172;6.598;2023-11-18T09:01:51;5.30;99.90
51853;DHT22;37894;53.172;6.598;2023-11-18T09:06:47;4.70;99.90
51853;DHT22;37894;53.172;6.598;2023-11-18T09:09:16;4.50;99.90
51853;DHT22;37894;53.172;6.598;2023-11-18T09:11:53;4.50;99.90
51853;DHT22;37894;53.172;6.598;2023-11-18T09:14:58;4.50;99.90
51853;DHT22;37894;53.172;6.598;2023-11-18T09:17:51;4.50;99.90
51853;DHT22;37894;53.172;6.598;2023-11-18T09:21:03;4.50;99.90
51853;DHT22;37894;53.172;6.598;2023-11-18T09:23:41;5.30;99.90
51853;DHT22;37894;53.172;6.598;2023-11-18T09:26:07;5.90;99.90
51853;DHT22;37894;53.172;6.598;2023-11-18T09:28:34;4.70;99.90
51853;DHT22;37894;53.172;6.598;2023-11-18T09:31:01;4.80;99.90
51853;DHT22;37894;53.172;6.598;2023-11-18T09:33:29;4.70;99.90
51853;DHT22;37894;53.172;6.598;2023-11-18T09:36:05;4.80;99.90
51853;DHT22;37894;53.172;6.598;2023-11-18T09:38:35;5.20;99.90
51853;DHT22;37894;53.172;6.598;2023-11-18T09:41:07;4.90;99.90
51853;DHT22;37894;53.172;6.598;2023-11-18T09:43:37;4.90;99.90
51853;DHT22;37894;53.172;6.598;2023-11-18T09:46:14;4.70;99.90
51853;DHT22;37894;53.172;6.598;2023-11-18T09:48:43;4.80;99.90
51853;DHT22;37894;53.172;6.598;2023-11-18T09:51:20;4.80;99.90
51853;DHT22;37894;53.172;6.598;2023-11-18T09:53:53;4.90;99.90
51853;DHT22;37894;53.172;6.598;2023-11-18T09:56:31;4.80;99.90
51853;DHT22;37894;53.172;6.598;2023-11-18T09:59:21;4.20;99.90
51853;DHT22;37894;53.172;6.598;2023-11-18T10:01:54;4.80;99.90
51853;DHT22;37894;53.172;6.598;2023-11-18T10:04:25;4.90;99.90
51853;DHT22;37894;53.172;6.598;2023-11-18T10:06:54;4.80;99.90
51853;DHT22;37894;53.172;6.598;2023-11-18T10:09:23;4.50;99.90
51853;DHT22;37894;53.172;6.598;2023-11-18T10:12:04;4.90;99.90
51853;DHT22;37894;53.172;6.598;2023-11-18T10:14:36;4.90;99.90
51853;DHT22;37894;53.172;6.598;2023-11-18T10:17:08;5.60;99.90
51853;DHT22;37894;53.172;6.598;2023-11-18T10:19:57;5.80;99.90
51853;DHT22;37894;53.172;6.598;2023-11-18T10:22:25;5.00;99.90
51853;DHT22;37894;53.172;6.598;2023-11-18T10:24:52;4.70;99.90
51853;DHT22;37894;53.172;6.598;2023-11-18T10:27:27;5.00;99.90
51853;DHT22;37894;53.172;6.598;2023-11-18T10:30:03;4.90;99.90
51853;DHT22;37894;53.172;6.598;2023-11-18T10:32:29;4.60;99.90
51853;DHT22;37894;53.172;6.598;2023-11-18T10:34:58;4.30;99.90
51853;DHT22;37894;53.172;6.598;2023-11-18T10:37:27;4.10;99.90
51853;DHT22;37894;53.172;6.598;2023-11-18T10:42:28;5.10;99.90
51853;DHT22;37894;53.172;6.598;2023-11-18T10:44:59;4.80;99.90
51853;DHT22;37894;53.172;6.598;2023-11-18T10:52:22;4.80;99.90
51853;DHT22;37894;53.172;6.598;2023-11-18T10:54:55;4.80;99.90
51853;DHT22;37894;53.172;6.598;2023-11-18T10:57:24;4.70;99.90
51853;DHT22;37894;53.172;6.598;2023-11-18T11:00:03;5.90;99.90
51853;DHT22;37894;53.172;6.598;2023-11-18T11:10:02;4.70;99.90
51853;DHT22;37894;53.172;6.598;2023-11-18T11:12:34;5.60;99.90
51853;DHT22;37894;53.172;6.598;2023-11-18T11:17:30;4.80;99.90
51853;DHT22;37894;53.172;6.598;2023-11-18T11:23:10;4.80;99.90
51853;DHT22;37894;53.172;6.598;2023-11-18T11:28:22;4.80;99.90
51853;DHT22;37894;53.172;6.598;2023-11-18T11:31:12;4.80;99.90
51853;DHT22;37894;53.172;6.598;2023-11-18T11:33:46;4.90;99.90
51853;DHT22;37894;53.172;6.598;2023-11-18T11:36:20;5.80;99.90
51853;DHT22;37894;53.172;6.598;2023-11-18T11:38:49;6.50;99.90
51853;DHT22;37894;53.172;6.598;2023-11-18T11:41:17;5.00;99.90
51853;DHT22;37894;53.172;6.598;2023-11-18T11:43:48;5.00;99.90
51853;DHT22;37894;53.172;6.598;2023-11-18T11:46:15;5.00;99.90
51853;DHT22;37894;53.172;6.598;2023-11-18T11:48:49;4.90;99.90
51853;DHT22;37894;53.172;6.598;2023-11-18T11:51:25;4.60;99.90
51853;DHT22;37894;53.172;6.598;2023-11-18T11:54:11;4.90;99.90
51853;DHT22;37894;53.172;6.598;2023-11-18T11:56:48;5.00;99.90
51853;DHT22;37894;53.172;6.598;2023-11-18T12:02:15;5.10;99.90
51853;DHT22;37894;53.172;6.598;2023-11-18T12:04:45;5.10;99.90
51853;DHT22;37894;53.172;6.598;2023-11-18T12:12:20;5.10;99.90
51853;DHT22;37894;53.172;6.598;2023-11-18T12:14:54;5.20;99.90
51853;DHT22;37894;53.172;6.598;2023-11-18T12:17:24;5.10;99.90
51853;DHT22;37894;53.172;6.598;2023-11-18T12:19:54;8.50;99.90
51853;DHT22;37894;53.172;6.598;2023-11-18T12:22:25;5.10;99.90
51853;DHT22;37894;53.172;6.598;2023-11-18T12:35:28;5.10;99.90
51853;DHT22;37894;53.172;6.598;2023-11-18T12:40:57;5.30;99.90
51853;DHT22;37894;53.172;6.598;2023-11-18T12:46:12;5.00;99.90
51853;DHT22;37894;53.172;6.598;2023-11-18T12:48:47;5.20;99.90
51853;DHT22;37894;53.172;6.598;2023-11-18T12:51:15;5.20;99.90
51853;DHT22;37894;53.172;6.598;2023-11-18T12:53:51;5.20;99.90
51853;DHT22;37894;53.172;6.598;2023-11-18T12:56:19;5.30;99.90
51853;DHT22;37894;53.172;6.598;2023-11-18T12:58:46;4.80;99.90
51853;DHT22;37894;53.172;6.598;2023-11-18T13:01:13;5.30;99.90
51853;DHT22;37894;53.172;6.598;2023-11-18T13:03:43;5.20;99.90
51853;DHT22;37894;53.172;6.598;2023-11-18T13:06:10;5.50;99.90
51853;DHT22;37894;53.172;6.598;2023-11-18T13:08:41;5.20;99.90
51853;DHT22;37894;53.172;6.598;2023-11-18T13:13:38;5.20;99.90
51853;DHT22;37894;53.172;6.598;2023-11-18T13:16:06;5.20;99.90
51853;DHT22;37894;53.172;6.598;2023-11-18T13:18:47;5.20;99.90
51853;DHT22;37894;53.172;6.598;2023-11-18T13:21:16;5.20;99.90
51853;DHT22;37894;53.172;6.598;2023-11-18T13:23:45;5.20;99.90
51853;DHT22;37894;53.172;6.598;2023-11-18T13:26:14;5.40;99.90
51853;DHT22;37894;53.172;6.598;2023-11-18T13:28:40;5.20;99.90
51853;DHT22;37894;53.172;6.598;2023-11-18T13:31:06;5.20;99.90
51853;DHT22;37894;53.172;6.598;2023-11-18T13:33:39;5.40;99.90
51853;DHT22;37894;53.172;6.598;2023-11-18T13:36:06;4.80;99.90
51853;DHT22;37894;53.172;6.598;2023-11-18T13:38:36;5.40;99.90
51853;DHT22;37894;53.172;6.598;2023-11-18T13:41:03;6.20;99.90
51853;DHT22;37894;53.172;6.598;2023-11-18T13:43:45;4.70;99.90
51853;DHT22;37894;53.172;6.598;2023-11-18T13:48:41;5.00;99.90
51853;DHT22;37894;53.172;6.598;2023-11-18T13:51:09;5.20;99.90
51853;DHT22;37894;53.172;6.598;2023-11-18T13:53:39;5.10;99.90
51853;DHT22;37894;53.172;6.598;2023-11-18T13:56:10;5.70;99.90
51853;DHT22;37894;53.172;6.598;2023-11-18T13:58:36;6.20;99.90
51853;DHT22;37894;53.172;6.598;2023-11-18T14:01:11;5.30;99.90
51853;DHT22;37894;53.172;6.598;2023-11-18T14:03:37;7.10;99.90
51853;DHT22;37894;53.172;6.598;2023-11-18T14:06:07;5.20;99.90
51853;DHT22;37894;53.172;6.598;2023-11-18T14:13:31;5.20;99.90
51853;DHT22;37894;53.172;6.598;2023-11-18T14:16:00;4.80;99.90
51853;DHT22;37894;53.172;6.598;2023-11-18T14:20:53;5.30;99.90
51853;DHT22;37894;53.172;6.598;2023-11-18T14:25:47;5.20;99.90
51853;DHT22;37894;53.172;6.598;2023-11-18T14:33:06;5.30;99.90
51853;DHT22;37894;53.172;6.598;2023-11-18T14:38:00;5.00;99.90
51853;DHT22;37894;53.172;6.598;2023-11-18T14:40:26;4.60;99.90
51853;DHT22;37894;53.172;6.598;2023-11-18T14:42:54;5.60;99.90
51853;DHT22;37894;53.172;6.598;2023-11-18T14:45:20;5.30;99.90
51853;DHT22;37894;53.172;6.598;2023-11-18T14:50:14;5.30;99.90
51853;DHT22;37894;53.172;6.598;2023-11-18T14:52:46;5.30;99.90
51853;DHT22;37894;53.172;6.598;2023-11-18T14:57:42;5.30;99.90
51853;DHT22;37894;53.172;6.598;2023-11-18T15:00:10;5.10;99.90
51853;DHT22;37894;53.172;6.598;2023-11-18T15:02:48;5.10;99.90
51853;DHT22;37894;53.172;6.598;2023-11-18T15:05:15;5.80;99.90
51853;DHT22;37894;53.172;6.598;2023-11-18T15:07:48;4.50;99.90
51853;DHT22;37894;53.172;6.598;2023-11-18T15:10:19;5.40;99.90
51853;DHT22;37894;53.172;6.598;2023-11-18T15:12:55;5.40;99.90
51853;DHT22;37894;53.172;6.598;2023-11-18T15:15:32;5.40;99.90
51853;DHT22;37894;53.172;6.598;2023-11-18T15:18:03;5.00;99.90
51853;DHT22;37894;53.172;6.598;2023-11-18T15:20:29;6.40;99.90
51853;DHT22;37894;53.172;6.598;2023-11-18T15:22:55;7.20;99.90
51853;DHT22;37894;53.172;6.598;2023-11-18T15:27:48;5.50;99.90
51853;DHT22;37894;53.172;6.598;2023-11-18T15:30:16;5.60;99.90
51853;DHT22;37894;53.172;6.598;2023-11-18T15:32:46;5.60;99.90
51853;DHT22;37894;53.172;6.598;2023-11-18T15:35:13;7.70;99.90
51853;DHT22;37894;53.172;6.598;2023-11-18T15:37:41;6.40;99.90
51853;DHT22;37894;53.172;6.598;2023-11-18T15:40:08;4.50;99.90
51853;DHT22;37894;53.172;6.598;2023-11-18T15:42:44;5.60;99.90
51853;DHT22;37894;53.172;6.598;2023-11-18T15:45:23;5.10;99.90
51853;DHT22;37894;53.172;6.598;2023-11-18T15:47:54;5.20;99.90
51853;DHT22;37894;53.172;6.598;2023-11-18T15:50:20;6.50;99.90
51853;DHT22;37894;53.172;6.598;2023-11-18T15:52:48;5.90;99.90
51853;DHT22;37894;53.172;6.598;2023-11-18T15:55:14;5.60;99.90
51853;DHT22;37894;53.172;6.598;2023-11-18T15:57:45;5.70;99.90
51853;DHT22;37894;53.172;6.598;2023-11-18T16:00:18;5.60;99.90
51853;DHT22;37894;53.172;6.598;2023-11-18T16:02:47;5.70;99.90
51853;DHT22;37894;53.172;6.598;2023-11-18T16:05:15;5.60;99.90
51853;DHT22;37894;53.172;6.598;2023-11-18T16:07:47;5.80;99.90
51853;DHT22;37894;53.172;6.598;2023-11-18T16:10:14;6.20;99.90
51853;DHT22;37894;53.172;6.598;2023-11-18T16:15:22;5.50;99.90
51853;DHT22;37894;53.172;6.598;2023-11-18T16:17:55;5.70;99.90
51853;DHT22;37894;53.172;6.598;2023-11-18T16:20:24;5.70;99.90
51853;DHT22;37894;53.172;6.598;2023-11-18T16:22:52;5.70;99.90
51853;DHT22;37894;53.172;6.598;2023-11-18T16:25:20;5.90;99.90
51853;DHT22;37894;53.172;6.598;2023-11-18T16:27:47;5.40;99.90
51853;DHT22;37894;53.172;6.598;2023-11-18T16:30:13;5.40;99.90
51853;DHT22;37894;53.172;6.598;2023-11-18T16:32:39;6.40;99.90
51853;DHT22;37894;53.172;6.598;2023-11-18T16:35:06;6.00;99.90
51853;DHT22;37894;53.172;6.598;2023-11-18T16:37:38;6.00;99.90
51853;DHT22;37894;53.172;6.598;2023-11-18T16:40:09;6.00;99.90
51853;DHT22;37894;53.172;6.598;2023-11-18T16:42:41;6.20;99.90
51853;DHT22;37894;53.172;6.598;2023-11-18T16:45:07;5.50;99.90
51853;DHT22;37894;53.172;6.598;2023-11-18T16:47:37;6.50;99.90
51853;DHT22;37894;53.172;6.598;2023-11-18T16:50:07;6.00;99.90
51853;DHT22;37894;53.172;6.598;2023-11-18T16:52:36;5.80;99.90
51853;DHT22;37894;53.172;6.598;2023-11-18T16:55:05;6.10;99.90
51853;DHT22;37894;53.172;6.598;2023-11-18T16:57:31;5.30;99.90
51853;DHT22;37894;53.172;6.598;2023-11-18T17:00:00;5.90;99.90
51853;DHT22;37894;53.172;6.598;2023-11-18T17:02:28;5.60;99.90
51853;DHT22;37894;53.172;6.598;2023-11-18T17:04:54;6.10;99.90
51853;DHT22;37894;53.172;6.598;2023-11-18T17:09:47;5.80;99.90
51853;DHT22;37894;53.172;6.598;2023-11-18T17:12:13;5.90;99.90
51853;DHT22;37894;53.172;6.598;2023-11-18T17:14:38;6.10;99.90
51853;DHT22;37894;53.172;6.598;2023-11-18T17:22:00;6.00;99.90
51853;DHT22;37894;53.172;6.598;2023-11-18T17:26:53;6.20;99.90
51853;DHT22;37894;53.172;6.598;2023-11-18T17:31:45;5.80;99.90
51853;DHT22;37894;53.172;6.598;2023-11-18T17:36:37;5.70;99.90
51853;DHT22;37894;53.172;6.598;2023-11-18T17:39:03;6.30;99.90
51853;DHT22;37894;53.172;6.598;2023-11-18T17:43:55;6.50;99.90
51853;DHT22;37894;53.172;6.598;2023-11-18T17:46:22;6.00;99.90
51853;DHT22;37894;53.172;6.598;2023-11-18T17:53:40;6.40;99.90
51853;DHT22;37894;53.172;6.598;2023-11-18T17:56:06;6.10;99.90
51853;DHT22;37894;53.172;6.598;2023-11-18T17:58:32;6.20;99.90
51853;DHT22;37894;53.172;6.598;2023-11-18T18:03:27;6.00;99.90
51853;DHT22;37894;53.172;6.598;2023-11-18T18:05:52;5.60;99.90
51853;DHT22;37894;53.172;6.598;2023-11-18T18:10:44;6.20;99.90
51853;DHT22;37894;53.172;6.598;2023-11-18T18:15:36;6.20;99.90
51853;DHT22;37894;53.172;6.598;2023-11-18T18:20:29;6.60;99.90
51853;DHT22;37894;53.172;6.598;2023-11-18T18:25:21;6.40;99.90
51853;DHT22;37894;53.172;6.598;2023-11-18T18:27:47;6.10;99.90
51853;DHT22;37894;53.172;6.598;2023-11-18T18:30:15;6.50;99.90
51853;DHT22;37894;53.172;6.598;2023-11-18T18:32:44;6.20;99.90
51853;DHT22;37894;53.172;6.598;2023-11-18T18:35:12;6.10;99.90
51853;DHT22;37894;53.172;6.598;2023-11-18T18:40:04;5.50;99.90
51853;DHT22;37894;53.172;6.598;2023-11-18T18:42:30;6.40;99.90
51853;DHT22;37894;53.172;6.598;2023-11-18T18:47:24;5.50;99.90
51853;DHT22;37894;53.172;6.598;2023-11-18T18:49:49;6.50;99.90
51853;DHT22;37894;53.172;6.598;2023-11-18T18:57:08;6.60;99.90
51853;DHT22;37894;53.172;6.598;2023-11-18T18:59:34;6.10;99.90
51853;DHT22;37894;53.172;6.598;2023-11-18T19:04:26;6.60;99.90
51853;DHT22;37894;53.172;6.598;2023-11-18T19:06:52;6.70;99.90
51853;DHT22;37894;53.172;6.598;2023-11-18T19:09:20;6.80;99.90
51853;DHT22;37894;53.172;6.598;2023-11-18T19:11:47;6.70;99.90
51853;DHT22;37894;53.172;6.598;2023-11-18T19:14:13;6.60;99.90
51853;DHT22;37894;53.172;6.598;2023-11-18T19:19:04;6.40;99.90
51853;DHT22;37894;53.172;6.598;2023-11-18T19:23:57;6.60;99.90
51853;DHT22;37894;53.172;6.598;2023-11-18T19:26:23;6.70;99.90
51853;DHT22;37894;53.172;6.598;2023-11-18T19:31:15;6.70;99.90
51853;DHT22;37894;53.172;6.598;2023-11-18T19:33:44;6.10;99.90
51853;DHT22;37894;53.172;6.598;2023-11-18T19:36:10;7.60;99.90
51853;DHT22;37894;53.172;6.598;2023-11-18T19:38:39;6.90;99.90
51853;DHT22;37894;53.172;6.598;2023-11-18T19:41:06;6.70;99.90
51853;DHT22;37894;53.172;6.598;2023-11-18T19:43:32;7.40;99.90
51853;DHT22;37894;53.172;6.598;2023-11-18T19:48:24;7.10;99.90
51853;DHT22;37894;53.172;6.598;2023-11-18T19:50:51;6.90;99.90
51853;DHT22;37894;53.172;6.598;2023-11-18T19:53:19;6.50;99.90
51853;DHT22;37894;53.172;6.598;2023-11-18T19:55:45;7.10;99.90
51853;DHT22;37894;53.172;6.598;2023-11-18T20:00:37;7.00;99.90
51853;DHT22;37894;53.172;6.598;2023-11-18T20:03:03;8.00;99.90
51853;DHT22;37894;53.172;6.598;2023-11-18T20:05:30;7.40;99.90
51853;DHT22;37894;53.172;6.598;2023-11-18T20:07:57;7.80;99.90
51853;DHT22;37894;53.172;6.598;2023-11-18T20:12:49;7.60;99.90
51853;DHT22;37894;53.172;6.598;2023-11-18T20:15:15;6.70;99.90
51853;DHT22;37894;53.172;6.598;2023-11-18T20:20:11;7.20;99.90
51853;DHT22;37894;53.172;6.598;2023-11-18T20:22:36;7.20;99.90
51853;DHT22;37894;53.172;6.598;2023-11-18T20:25:07;7.40;99.90
51853;DHT22;37894;53.172;6.598;2023-11-18T20:27:36;7.40;99.90
51853;DHT22;37894;53.172;6.598;2023-11-18T20:32:33;7.10;99.90
51853;DHT22;37894;53.172;6.598;2023-11-18T20:34:59;7.40;99.90
51853;DHT22;37894;53.172;6.598;2023-11-18T20:37:25;7.60;99.90
51853;DHT22;37894;53.172;6.598;2023-11-18T20:39:51;7.70;99.90
51853;DHT22;37894;53.172;6.598;2023-11-18T20:42:17;7.60;99.90
51853;DHT22;37894;53.172;6.598;2023-11-18T20:47:08;7.80;99.90
51853;DHT22;37894;53.172;6.598;2023-11-18T20:49:35;7.80;99.90
51853;DHT22;37894;53.172;6.598;2023-11-18T20:52:00;7.50;99.90
51853;DHT22;37894;53.172;6.598;2023-11-18T20:54:26;7.80;99.90
51853;DHT22;37894;53.172;6.598;2023-11-18T20:56:52;8.60;99.90
51853;DHT22;37894;53.172;6.598;2023-11-18T21:01:44;7.60;99.90
51853;DHT22;37894;53.172;6.598;2023-11-18T21:04:10;7.70;99.90
51853;DHT22;37894;53.172;6.598;2023-11-18T21:11:28;7.90;99.90
51853;DHT22;37894;53.172;6.598;2023-11-18T21:13:54;7.80;99.90
51853;DHT22;37894;53.172;6.598;2023-11-18T21:16:19;8.00;99.90
51853;DHT22;37894;53.172;6.598;2023-11-18T21:18:45;8.50;99.90
51853;DHT22;37894;53.172;6.598;2023-11-18T21:21:11;7.60;99.90
51853;DHT22;37894;53.172;6.598;2023-11-18T21:23:38;7.80;99.90
51853;DHT22;37894;53.172;6.598;2023-11-18T21:26:04;8.10;99.90
51853;DHT22;37894;53.172;6.598;2023-11-18T21:30:56;8.20;99.90
51853;DHT22;37894;53.172;6.598;2023-11-18T21:33:23;7.90;99.90
51853;DHT22;37894;53.172;6.598;2023-11-18T21:35:49;8.30;99.90
51853;DHT22;37894;53.172;6.598;2023-11-18T21:38:17;8.30;99.90
51853;DHT22;37894;53.172;6.598;2023-11-18T21:43:09;8.30;99.90
51853;DHT22;37894;53.172;6.598;2023-11-18T21:45:35;8.00;99.90
51853;DHT22;37894;53.172;6.598;2023-11-18T21:48:03;8.50;99.90
51853;DHT22;37894;53.172;6.598;2023-11-18T21:50:30;8.00;99.90
51853;DHT22;37894;53.172;6.598;2023-11-18T21:52:56;8.30;99.90
51853;DHT22;37894;53.172;6.598;2023-11-18T21:55:21;8.70;99.90
51853;DHT22;37894;53.172;6.598;2023-11-18T21:57:47;9.10;99.90
51853;DHT22;37894;53.172;6.598;2023-11-18T22:00:13;8.60;99.90
51853;DHT22;37894;53.172;6.598;2023-11-18T22:02:46;8.30;99.90
51853;DHT22;37894;53.172;6.598;2023-11-18T22:05:13;8.70;99.90
51853;DHT22;37894;53.172;6.598;2023-11-18T22:07:40;8.40;99.90
51853;DHT22;37894;53.172;6.598;2023-11-18T22:10:07;8.70;99.90
51853;DHT22;37894;53.172;6.598;2023-11-18T22:12:36;8.80;99.90
51853;DHT22;37894;53.172;6.598;2023-11-18T22:15:02;9.30;99.90
51853;DHT22;37894;53.172;6.598;2023-11-18T22:17:29;8.90;99.90
51853;DHT22;37894;53.172;6.598;2023-11-18T22:19:55;8.70;99.90
51853;DHT22;37894;53.172;6.598;2023-11-18T22:22:21;8.40;99.90
51853;DHT22;37894;53.172;6.598;2023-11-18T22:24:47;8.80;99.90
51853;DHT22;37894;53.172;6.598;2023-11-18T22:27:12;9.00;99.90
51853;DHT22;37894;53.172;6.598;2023-11-18T22:29:45;9.10;99.90
51853;DHT22;37894;53.172;6.598;2023-11-18T22:32:15;9.30;99.90
51853;DHT22;37894;53.172;6.598;2023-11-18T22:34:42;9.90;99.90
51853;DHT22;37894;53.172;6.598;2023-11-18T22:37:08;9.50;99.90